Timeline UpdatesTrip UpdatesNews PostsPvt PostsTravel TipsAdmin PostsConv PostsFollowed PostsChat RequestsBlog PostsPNR Posts

Disclaimer
Search
 
 
Tue Sep 30, 2014 11:27:30 ISTHomeTrainsΣChainsAtlasPNRForumGalleryNewsFAQTripsMembersLoginFeedback
No Recent News for this Train
Other Trains in the News **new
Latest...
.
Wed Jul 25, 2012 (05:18PM)
⇐ Return Journey: Train# 57274

57273/Hubli - Tirupati Passenger

Time-Table HAS CHANGED.
Sep 03 (10:41PM)
Change Departure Station:
Change Arrival Station:
Post a Train Travel TipPost a Train Travel Tip **new
Post a Comment/Question/Picture/VideoPost a Comment/Question/Picture/Video
Pantry/Catering
✕ NO Pantry Car
✕ NO Catering
RSA - Rake Sharing
57257/58 TPTY-COA Passenger
Rake/Coach Composition
LOCO-SLR-GS-GS-GS-GS-GS-GS-GS-S2-S1-GS-GS-GS-GS-GS-SLR
Loco
UBL - GTL --> GTL WDM 2B GTL-TPTY --> WAP/WAM
News    PNR    Forum    Time-Table    Availability    Fare Chart    Map    Arr/Dep History    Trips    Gallery    ΣChains    X/O    Timeline    
Travel Time: 12h 30m    49 halts    Distance: 434 km    Avg Speed: 34 km/hr
Type: Passenger
Zone: SCR/South Central
Departs @ 09:15 (Avg 18m late)
Platform# 1
SMTWTFS
Hospet Junction/HPT 
Arrives @ 21:45 (Avg 37m late)
Platform# 5
SMTWTFS
Tirupati Main/TPTY 

49 halts. 60 intermediate Stations between Hospet Junction and Tirupati Main

Show ALL intermediate Stations  Show Old Time-Table

#CodeStation NameX/OArrivesAvgDepartsAvgHaltPFDay#KmSpeedElevZoneAddress
1UBLHubli Junction (5)  -06:00+021-143.151640mSWRHubli - 580020, Karnataka
2SVHESisvinhalli  06:27-06:28-1m--1-120.3121594mSWRState Highway 28, Karnataka
3NGRAnnigeri (2)  06:34+1006:35+111m--1-108.271634mSWRDist. Dharwad, Karnataka
4LKTHulkoti  06:44+1606:45+161m--1-97.626654mSWRNational Highway 63, Karnataka
5GDGGadag Junction (3)X  07:13+807:15+102m--1-85.342655mSWRGadag GDG jn pnts. UBL/BAY/SUR, Karnataka
6BNPBhanapurX  08:05 08:19+708:10 08:20+125 1m--1-40.483561mSWRNational Highway 63, Karnataka
7KBLKoppal (1)  08:23 08:29+1408:25 08:30+162 1m11-27.974526mSWRKoppal, Karnataka
8GINGinigera  08:38 08:39+1808:40+192 1m--1-16.846511mSWRGinigera, Karnataka
9MRBMunirabad (1)  08:53 08:54+2008:55+222 1m11-6.119470mSWRMunirabad, Karnataka
10HPTHospet Junction (3)»  09:13 09:14+1609:15+182 1m110.050472mSWRHospet, Karnataka
11TNGLToranagallu (3)  09:54+2009:55+211m--132.238473mSWRToranagallu, Karnataka
12DAJDurojiX  10:00 10:04+2310:05+205 1m--138.027467mSWRBellary, Karnataka
13BAYBellary Junction (4)  11:05+411:10+75m3164.847458mSWRBellary-583101, Karnataka
14HDDHaddinagundu  11:18+1311:19+131m--171.050433mSCRNational Highway 63, Karnataka
15HGIHagari  11:27+1411:28+141m--177.665413mSCRNational Highway 63, Karnataka
16VPVirapur  11:37+1511:38+161m--187.450427mSCRAnantapur, Andhra Pradesh
17TKBNTsakibanda  11:44-11:45-1m--192.457431mSCRRayalaseema Region, Andhra Pradesh
18BNLBevinahalu  11:49+1811:50+181m--196.258428mSCRRayalaseema Region, Andhra Pradesh
19BLLBantanahalX  11:57+2211:58+231m--1102.926445mSCRRayalaseema Region, Andhra Pradesh
20GTLGuntakal Junction (6)12:25+2112:40+2715m--1114.728453mSCRGuntakal. Tel: 08552-227131/32, Andhra Pradesh
21TIMTimmanacherlaX  12:47+4712:48+491m--1117.977434mSCRGuntakal, Andhra Pradesh
22NKDONakkanadoddi  12:55+5212:56+531m--1126.958391mSCRRayalaseema Region, Andhra Pradesh
23PLUPatakottacheruvu  13:01+5313:02+541m--1131.758381mSCRRayalaseema Region, Andhra Pradesh
24GYGooty Junction (2)X  13:14+1:0013:15+1:101m--1143.265370mSCRNH 7 Anantapur District, Andhra Pradesh
25JKOJakkalacheruvuX  13:26+1:1813:27+1:181m--1155.178334mSCRRayalaseema Region, Andhra Pradesh
26RLORayala Cheruvu (2)  13:36+1:2113:37+1:211m--1166.938292mSCRRayalacheruvu, Andhra Pradesh
27VMLVemulapadu  13:46+1:2013:47+1:201m--1172.654269mSCRSH 57, Andhra Pradesh
28JURJutturu  13:54+1:2513:55+1:251m--1178.954260mSCRTadipatri, Andhra Pradesh
29KMQAKomali  14:02+1:2614:03+1:261m--1185.234246mSCRPappuru Rd, Andhra Pradesh
30TUTadipatri (3)14:14+1:0714:15+1:081m--1191.468243mSCRAnantapuram Dist, Andhra Pradesh
31CLPEChallavaripalli  14:21+1:2414:22+1:241m--1198.252229mSCRYallanur Rd, Andhra Pradesh
32VRNVanganur  14:29+1:3314:30+1:341m--1204.271222mSCRRayalaseema Region, Andhra Pradesh
33RLLRegadipalli  14:36+1:3214:37+1:321m--1211.318223mSCRKadapa (YSR District), Andhra Pradesh
34KDPKondapuram (2)X  15:04+1:1615:05+1:281m--1219.461214mSCRKadapa (YSR District), Andhra Pradesh
35MUMMangapatnam  15:14+1:3715:15+1:371m--1228.562218mSCRKadapa (YSR District), Andhra Pradesh
36MOOMuddanuru (3)  15:29+1:3915:30+1:421m--1243.057194mSCRKadapa (YSR District), Andhra Pradesh
37KMHKalamalia  15:39+1:4415:40+1:441m--1251.665178mSCRKadapa (YSR District), Andhra Pradesh
38YAYerraguntla (2)X  15:47+1:4215:48+1:431m--1259.257171mSCRKadapa / Cuddapah (YSR District), Andhra Pradesh
39YGDYerragudipad  15:57+1:5015:58+1:511m--1267.738149mSCRKadapa (YSR District), Andhra Pradesh
40KKMKamalapuram (2)  16:09+1:5116:10+1:531m--1274.770141mSCRKadapa (YSR District), Andhra Pradesh
41GPYGangayapalle  16:16+1:5716:17+1:571m--1281.670137mSCRKadapa (YSR District), Andhra Pradesh
42KPUKrishnapuramX  16:25+2:0016:26+2:011m--1290.912133mSCRKadapa (YSR District), Andhra Pradesh
43HXKadapa (3)X  17:04+1:0217:05+1:101m11298.360146mSCRCuddapah, Andhra Pradesh
44KNLPKanamalo Palle  17:16+1:5917:17+1:591m--1309.348188mSCRKadapa (YSR District), Andhra Pradesh
45BKPTBhakarapet  17:24+2:0017:25+2:001m--1314.949145mSCRKadapa (YSR District), Andhra Pradesh
46VNMOntimitta (2)  17:32+2:0217:33+2:021m--1320.672134mSCRKadapa (YSR District), Andhra Pradesh
47MMPLMantapampalle (1)  17:42+2:0517:43+2:051m11331.528154mSCRKadapa (YSR District), Andhra Pradesh
48NRENandalurX  17:59+2:0018:00+2:021m--1338.936143mSCRRayalaseema Region, Andhra Pradesh
49HAQHastavaram  18:09+2:0318:10+2:041m--1344.338143mSCRKadapa (YSR District), Andhra Pradesh
50RJPRazampeta (2)  18:18+1:2018:19+1:201m--1349.461144mSCRKadapa (YSR District), Andhra Pradesh
51PMTPullampet  18:28+1:5518:29+1:551m--1358.546159mSCRKadapa (YSR District), Andhra Pradesh
52RPLReddipalle  18:34-18:35-1m--1362.463175mSCRDr. Y.S. Rajasekhar Reddy, Andhra Pradesh
53OBVPObulavaripalli (2)  18:42+1:4618:43+1:481m--1369.759191mSCRRayalaseema Region, Andhra Pradesh
54ANEAnantarajupet  18:49+1:5918:50+1:591m--1375.663197mSCRRayalaseema Region, Andhra Pradesh
55KOUKoduru (2)  18:57+1:5618:58+1:561m--1382.962215mSCRKadapa (YSR District), Andhra Pradesh
56SFSettigunta  19:07+2:0819:08+2:081m--1392.239214mSCRCoastal Andhra Region, Andhra Pradesh
57BLPEBalapalleX  19:19+2:0619:20+2:061m--1399.474246mSCRGangurajupodu, Andhra Pradesh
58MRMMamanduruX  19:28+2:0919:29+2:121m--1409.313177mSCRChittoor, Andhra Pradesh
59RURenigunta Junction (5)XO  20:15 20:35+1:1020:20 21:30+1:055 55m--1423.840113mSCRChittoor District, Andhra Pradesh
60TPTYTirupati Main (5)•  21:00 21:45+37-51433.7-150mSCRChittoor Distt, Andhra Pradesh
Scroll to Top
Scroll to Bottom